Time,TemperatureF,DewpointF,PressureIn,WindDirection,WindDirectionDegrees,WindSpeedMPH,WindSpeedGustMPH,Humidity,HourlyPrecipIn,Conditions,Clouds,dailyrainin,SoftwareType,DateUTC
2013-06-12 00:03:00,71.0,61.0,-100.00,SW,223,2.0,3.0,73,0.00,,,0.57,,2013-06-12 04:03:00,
2013-06-12 00:13:00,69.0,61.0,-100.00,SSW,193,0.0,2.0,75,0.00,,,0.52,,2013-06-12 04:13:00,
2013-06-12 00:23:00,69.0,61.0,-100.00,SSW,193,0.0,2.0,75,0.00,,,0.52,,2013-06-12 04:23:00,
2013-06-12 00:34:00,71.0,62.0,-100.00,SSW,199,4.0,5.0,72,0.00,,,0.52,,2013-06-12 04:34:00,
2013-06-12 00:42:00,71.0,62.0,-100.00,SSW,199,4.0,5.0,72,0.00,,,0.52,,2013-06-12 04:42:00,
2013-06-12 00:52:00,71.0,62.0,-100.00,SSW,199,4.0,5.0,72,0.00,,,0.52,,2013-06-12 04:52:00,
2013-06-12 01:03:00,69.0,61.0,-100.00,SW,236,1.0,2.0,76,0.00,,,0.52,,2013-06-12 05:03:00,
2013-06-12 01:12:00,69.0,61.0,-100.00,SW,236,1.0,2.0,76,0.00,,,0.52,,2013-06-12 05:12:00,
2013-06-12 01:22:00,69.0,61.0,-100.00,SW,236,1.0,2.0,76,0.00,,,0.52,,2013-06-12 05:22:00,
2013-06-12 01:32:00,69.0,62.0,-100.00,SSW,196,1.0,3.0,78,0.00,,,0.52,,2013-06-12 05:32:00,
2013-06-12 01:42:00,69.0,62.0,-100.00,SSW,196,1.0,3.0,78,0.00,,,0.52,,2013-06-12 05:42:00,
2013-06-12 01:52:00,68.0,62.0,-100.00,SSW,198,5.0,7.0,80,0.00,,,0.52,,2013-06-12 05:52:00,
2013-06-12 02:02:00,68.0,62.0,-100.00,SSW,198,5.0,7.0,80,0.00,,,0.52,,2013-06-12 06:02:00,
2013-06-12 02:12:00,68.0,62.0,-100.00,SSW,198,5.0,7.0,80,0.00,,,0.52,,2013-06-12 06:12:00,
2013-06-12 02:22:00,68.0,62.0,-100.00,SSW,198,5.0,7.0,80,0.00,,,0.52,,2013-06-12 06:22:00,
2013-06-12 02:32:00,68.0,62.0,-100.00,South,176,2.0,3.0,81,0.00,,,0.51,,2013-06-12 06:32:00,
2013-06-12 02:42:00,67.0,62.0,-100.00,South,176,2.0,3.0,83,0.00,,,0.44,,2013-06-12 06:42:00,
2013-06-12 02:52:00,67.0,62.0,-100.00,South,176,2.0,3.0,83,0.00,,,0.44,,2013-06-12 06:52:00,
2013-06-12 03:02:00,68.0,62.0,-100.00,South,172,3.0,4.0,80,0.00,,,0.32,,2013-06-12 07:02:00,
2013-06-12 03:12:00,68.0,62.0,-100.00,South,172,3.0,4.0,80,0.00,,,0.32,,2013-06-12 07:12:00,
2013-06-12 03:22:00,68.0,62.0,-100.00,South,172,3.0,4.0,80,0.00,,,0.32,,2013-06-12 07:22:00,
2013-06-12 03:33:00,67.0,62.0,-100.00,North,359,1.0,2.0,83,0.00,,,0.19,,2013-06-12 07:33:00,
2013-06-12 03:43:00,67.0,62.0,-100.00,SSE,147,4.0,5.0,83,0.00,,,0.07,,2013-06-12 07:43:00,
2013-06-12 03:53:00,67.0,62.0,-100.00,SSE,147,4.0,5.0,83,0.00,,,0.07,,2013-06-12 07:53:00,
2013-06-12 04:02:00,67.0,62.0,-100.00,SSE,147,4.0,5.0,83,0.00,,,0.07,,2013-06-12 08:02:00,
2013-06-12 04:12:00,67.0,62.0,-100.00,SSW,203,5.0,6.0,82,0.00,,,0.00,,2013-06-12 08:12:00,
2013-06-12 04:22:00,67.0,62.0,-100.00,SSW,203,5.0,6.0,82,0.00,,,0.00,,2013-06-12 08:22:00,
2013-06-12 04:33:00,67.0,62.0,-100.00,WNW,294,1.0,1.0,82,0.00,,,0.00,,2013-06-12 08:33:00,
2013-06-12 04:43:00,66.0,62.0,-100.00,SW,226,1.0,3.0,85,0.00,,,0.00,,2013-06-12 08:43:00,
2013-06-12 04:53:00,66.0,62.0,-100.00,SW,226,1.0,3.0,85,0.00,,,0.00,,2013-06-12 08:53:00,
2013-06-12 05:01:00,66.0,62.0,-100.00,SW,226,1.0,3.0,85,0.00,,,0.00,,2013-06-12 09:01:00,
2013-06-12 05:12:00,67.0,62.0,-100.00,West,274,1.0,2.0,83,0.00,,,0.00,,2013-06-12 09:12:00,
2013-06-12 05:22:00,67.0,62.0,-100.00,West,274,1.0,2.0,83,0.00,,,0.00,,2013-06-12 09:22:00,
2013-06-12 05:33:00,67.0,61.0,-100.00,SSW,196,4.0,5.0,82,0.00,,,0.00,,2013-06-12 09:33:00,
2013-06-12 05:43:00,67.0,61.0,-100.00,SSW,206,1.0,2.0,82,0.00,,,0.00,,2013-06-12 09:43:00,
2013-06-12 05:53:00,67.0,61.0,-100.00,SSW,206,1.0,2.0,82,0.00,,,0.00,,2013-06-12 09:53:00,
2013-06-12 06:02:00,67.0,61.0,-100.00,SSW,206,1.0,2.0,82,0.00,,,0.00,,2013-06-12 10:02:00,
2013-06-12 06:12:00,67.0,61.0,-100.00,SW,216,2.0,3.0,80,0.00,,,0.00,,2013-06-12 10:12:00,
2013-06-12 06:23:00,67.0,61.0,-100.00,SW,216,2.0,3.0,80,0.00,,,0.00,,2013-06-12 10:23:00,
2013-06-12 06:33:00,65.0,61.0,-100.00,South,178,1.0,2.0,85,0.00,,,0.00,,2013-06-12 10:33:00,
2013-06-12 06:43:00,66.0,61.0,-100.00,WSW,241,1.0,2.0,83,0.00,,,0.00,,2013-06-12 10:43:00,
2013-06-12 06:53:00,66.0,61.0,-100.00,WSW,241,1.0,2.0,83,0.00,,,0.00,,2013-06-12 10:53:00,
2013-06-12 07:02:00,66.0,61.0,-100.00,WSW,241,1.0,2.0,83,0.00,,,0.00,,2013-06-12 11:02:00,
2013-06-12 07:12:00,67.0,61.0,-100.00,West,274,2.0,3.0,81,0.00,,,0.00,,2013-06-12 11:12:00,
2013-06-12 07:24:00,67.0,61.0,-100.00,West,274,2.0,3.0,81,0.00,,,0.00,,2013-06-12 11:24:00,
2013-06-12 07:33:00,67.0,61.0,-100.00,South,184,3.0,4.0,80,0.00,,,0.00,,2013-06-12 11:33:00,
2013-06-12 07:43:00,67.0,61.0,-100.00,South,184,3.0,4.0,80,0.00,,,0.00,,2013-06-12 11:43:00,
2013-06-12 07:53:00,70.0,61.0,-100.00,SSW,193,3.0,5.0,75,0.00,,,0.00,,2013-06-12 11:53:00,
2013-06-12 08:02:00,70.0,61.0,-100.00,SSW,193,3.0,5.0,75,0.00,,,0.00,,2013-06-12 12:02:00,
2013-06-12 08:11:00,71.0,62.0,-100.00,SSW,192,2.0,3.0,75,0.00,,,0.00,,2013-06-12 12:11:00,
2013-06-12 08:23:00,71.0,62.0,-100.00,SSW,192,2.0,3.0,75,0.00,,,0.00,,2013-06-12 12:23:00,
2013-06-12 08:31:00,78.0,65.0,-100.00,South,179,2.0,4.0,66,0.00,,,0.00,,2013-06-12 12:31:00,
2013-06-12 08:33:00,71.0,63.0,-100.00,South,172,2.0,3.0,76,0.00,,,0.00,,2013-06-12 12:33:00,
2013-06-12 08:43:00,74.0,64.0,-100.00,SSW,203,1.0,2.0,70,0.00,,,0.00,,2013-06-12 12:43:00,
2013-06-12 08:53:00,74.0,64.0,-100.00,SSW,203,1.0,2.0,70,0.00,,,0.00,,2013-06-12 12:53:00,
2013-06-12 09:02:00,74.0,64.0,-100.00,SSW,203,1.0,2.0,70,0.00,,,0.00,,2013-06-12 13:02:00,
2013-06-12 09:11:00,78.0,65.0,-100.00,NW,306,6.0,9.0,64,0.00,,,0.00,,2013-06-12 13:11:00,
2013-06-12 09:12:00,78.0,65.0,-100.00,South,179,2.0,4.0,66,0.00,,,0.00,,2013-06-12 13:12:00,
2013-06-12 09:22:00,78.0,65.0,-100.00,South,179,2.0,4.0,66,0.00,,,0.00,,2013-06-12 13:22:00,
2013-06-12 09:43:00,78.0,65.0,-100.00,NW,306,6.0,9.0,64,0.00,,,0.00,,2013-06-12 13:43:00,
2013-06-12 09:53:00,78.0,65.0,-100.00,NW,306,6.0,9.0,64,0.00,,,0.00,,2013-06-12 13:53:00,
2013-06-12 10:02:00,78.0,65.0,-100.00,NW,306,6.0,9.0,64,0.00,,,0.00,,2013-06-12 14:02:00,
2013-06-12 10:33:00,80.0,66.0,-100.00,NNW,330,8.0,11.0,62,0.00,,,0.00,,2013-06-12 14:33:00,
2013-06-12 10:43:00,80.0,66.0,-100.00,NNW,330,8.0,11.0,62,0.00,,,0.00,,2013-06-12 14:43:00,
2013-06-12 10:53:00,-999.0,66.0,-100.00,NW,320,9.0,15.0,63,0.00,,,0.00,,2013-06-12 14:53:00,
2013-06-12 11:02:00,81.0,67.0,-100.00,NW,323,8.0,11.0,63,0.00,,,0.00,,2013-06-12 15:02:00,
2013-06-12 11:12:00,81.0,67.0,-100.00,NW,323,8.0,11.0,63,0.00,,,0.00,,2013-06-12 15:12:00,
2013-06-12 11:23:00,81.0,67.0,-100.00,NW,323,8.0,11.0,63,0.00,,,0.00,,2013-06-12 15:23:00,
2013-06-12 11:31:00,80.0,67.0,-100.00,NW,309,6.0,11.0,65,0.00,,,0.00,,2013-06-12 15:31:00,
2013-06-12 11:33:00,79.0,66.0,-100.00,WNW,294,5.0,7.0,63,0.00,,,0.00,,2013-06-12 15:33:00,
2013-06-12 11:43:00,80.0,67.0,-100.00,NW,312,6.0,11.0,63,0.00,,,0.00,,2013-06-12 15:43:00,
2013-06-12 11:52:00,80.0,67.0,-100.00,NW,312,6.0,11.0,63,0.00,,,0.00,,2013-06-12 15:52:00,
2013-06-12 12:02:00,80.0,67.0,-100.00,NW,309,6.0,11.0,65,0.00,,,0.00,,2013-06-12 16:02:00,
2013-06-12 12:12:00,80.0,67.0,-100.00,NW,309,6.0,11.0,65,0.00,,,0.00,,2013-06-12 16:12:00,
2013-06-12 12:22:00,80.0,67.0,-100.00,NW,309,6.0,11.0,65,0.00,,,0.00,,2013-06-12 16:22:00,
2013-06-12 12:43:00,82.0,68.0,-100.00,NW,305,3.0,6.0,62,0.00,,,0.00,,2013-06-12 16:43:00,
2013-06-12 12:53:00,82.0,68.0,-100.00,NW,305,3.0,6.0,62,0.00,,,0.00,,2013-06-12 16:53:00,
2013-06-12 13:02:00,81.0,67.0,-100.00,North,356,3.0,5.0,63,0.00,,,0.00,,2013-06-12 17:02:00,
2013-06-12 13:12:00,81.0,67.0,-100.00,North,356,3.0,5.0,63,0.00,,,0.00,,2013-06-12 17:12:00,
2013-06-12 13:23:00,81.0,67.0,-100.00,North,356,3.0,5.0,63,0.00,,,0.00,,2013-06-12 17:23:00,
2013-06-12 13:31:00,85.0,69.0,-100.00,NW,323,4.0,7.0,58,0.00,,,0.00,,2013-06-12 17:31:00,
2013-06-12 13:33:00,83.0,69.0,-100.00,NNW,335,8.0,12.0,64,0.00,,,0.00,,2013-06-12 17:33:00,
2013-06-12 13:42:00,84.0,67.0,-100.00,NNW,342,5.0,9.0,57,0.00,,,0.00,,2013-06-12 17:42:00,
2013-06-12 13:52:00,84.0,67.0,-100.00,NNW,342,5.0,9.0,57,0.00,,,0.00,,2013-06-12 17:52:00,
2013-06-12 14:02:00,85.0,69.0,-100.00,NW,323,4.0,7.0,58,0.00,,,0.00,,2013-06-12 18:02:00,
2013-06-12 14:10:00,85.0,68.0,-100.00,NW,319,6.0,8.0,56,0.00,,,0.00,,2013-06-12 18:10:00,
2013-06-12 14:12:00,85.0,69.0,-100.00,NW,323,4.0,7.0,58,0.00,,,0.00,,2013-06-12 18:12:00,
2013-06-12 14:22:00,85.0,69.0,-100.00,NW,323,4.0,7.0,58,0.00,,,0.00,,2013-06-12 18:22:00,
2013-06-12 14:43:00,85.0,68.0,-100.00,NW,319,6.0,8.0,56,0.00,,,0.00,,2013-06-12 18:43:00,
2013-06-12 14:53:00,85.0,68.0,-100.00,NW,319,6.0,8.0,56,0.00,,,0.00,,2013-06-12 18:53:00,
2013-06-12 15:02:00,85.0,68.0,-100.00,NW,319,6.0,8.0,56,0.00,,,0.00,,2013-06-12 19:02:00,
2013-06-12 15:32:00,88.0,68.0,-100.00,NW,304,6.0,8.0,52,0.00,,,0.00,,2013-06-12 19:32:00,
2013-06-12 15:42:00,86.0,68.0,-100.00,NW,319,7.0,10.0,54,0.00,,,0.00,,2013-06-12 19:42:00,
2013-06-12 15:50:00,86.0,67.0,-100.00,NW,304,4.0,6.0,53,0.00,,,0.00,,2013-06-12 19:50:00,
2013-06-12 15:52:00,86.0,68.0,-100.00,NW,319,7.0,10.0,54,0.00,,,0.00,,2013-06-12 19:52:00,
2013-06-12 16:02:00,87.0,67.0,-100.00,WNW,292,5.0,10.0,50,0.00,,,0.00,,2013-06-12 20:02:00,
2013-06-12 16:11:00,87.0,67.0,-100.00,WNW,292,5.0,10.0,50,0.00,,,0.00,,2013-06-12 20:11:00,
2013-06-12 16:22:00,87.0,67.0,-100.00,WNW,292,5.0,10.0,50,0.00,,,0.00,,2013-06-12 20:22:00,
2013-06-12 16:33:00,86.0,67.0,-100.00,NW,304,4.0,6.0,53,0.00,,,0.00,,2013-06-12 20:33:00,
2013-06-12 16:43:00,86.0,67.0,-100.00,NW,304,4.0,6.0,53,0.00,,,0.00,,2013-06-12 20:43:00,
2013-06-12 17:12:00,87.0,67.0,-100.00,WNW,298,4.0,9.0,53,0.00,,,0.00,,2013-06-12 21:12:00,
2013-06-12 17:22:00,87.0,67.0,-100.00,WNW,298,4.0,9.0,53,0.00,,,0.00,,2013-06-12 21:22:00,
2013-06-12 17:33:00,87.0,67.0,-100.00,NW,312,5.0,9.0,52,0.00,,,0.00,,2013-06-12 21:33:00,
2013-06-12 17:43:00,87.0,66.0,-100.00,NW,311,5.0,9.0,50,0.00,,,0.00,,2013-06-12 21:43:00,
2013-06-12 17:53:00,87.0,66.0,-100.00,NW,311,5.0,9.0,50,0.00,,,0.00,,2013-06-12 21:53:00,
2013-06-12 18:01:00,88.0,68.0,-100.00,NW,312,4.0,5.0,52,0.00,,,0.00,,2013-06-12 22:01:00,
2013-06-12 18:11:00,88.0,68.0,-100.00,NW,312,4.0,5.0,52,0.00,,,0.00,,2013-06-12 22:11:00,
2013-06-12 18:22:00,88.0,68.0,-100.00,NW,312,4.0,5.0,52,0.00,,,0.00,,2013-06-12 22:22:00,
2013-06-12 18:33:00,87.0,67.0,-100.00,West,280,4.0,8.0,50,0.00,,,0.00,,2013-06-12 22:33:00,
2013-06-12 18:43:00,87.0,67.0,-100.00,West,280,4.0,8.0,50,0.00,,,0.00,,2013-06-12 22:43:00,
2013-06-12 18:52:00,87.0,67.0,-100.00,NW,304,5.0,9.0,50,0.00,,,0.00,,2013-06-12 22:52:00,
2013-06-12 19:02:00,87.0,67.0,-100.00,NW,304,5.0,9.0,50,0.00,,,0.00,,2013-06-12 23:02:00,
2013-06-12 19:12:00,88.0,67.0,-100.00,West,272,3.0,5.0,49,0.00,,,0.00,,2013-06-12 23:12:00,
2013-06-12 19:22:00,88.0,67.0,-100.00,West,272,3.0,5.0,49,0.00,,,0.00,,2013-06-12 23:22:00,
2013-06-12 19:32:00,88.0,66.0,-100.00,WNW,301,4.0,8.0,49,0.00,,,0.00,,2013-06-12 23:32:00,
2013-06-12 19:42:00,88.0,67.0,-100.00,NW,315,3.0,4.0,50,0.00,,,0.00,,2013-06-12 23:42:00,
2013-06-12 19:52:00,88.0,67.0,-100.00,NW,315,3.0,4.0,50,0.00,,,0.00,,2013-06-12 23:52:00,
2013-06-12 20:02:00,87.0,67.0,-100.00,West,261,2.0,4.0,51,0.00,,,0.00,,2013-06-13 00:02:00,
2013-06-12 20:12:00,87.0,67.0,-100.00,West,261,2.0,4.0,51,0.00,,,0.00,,2013-06-13 00:12:00,
2013-06-12 20:22:00,87.0,67.0,-100.00,West,261,2.0,4.0,51,0.00,,,0.00,,2013-06-13 00:22:00,
2013-06-12 20:33:00,84.0,68.0,-100.00,SSW,202,2.0,3.0,59,0.00,,,0.00,,2013-06-13 00:33:00,
2013-06-12 20:43:00,82.0,68.0,-100.00,South,181,3.0,5.0,62,0.00,,,0.00,,2013-06-13 00:43:00,
2013-06-12 20:52:00,81.0,68.0,-100.00,South,189,4.0,5.0,65,0.00,,,0.00,,2013-06-13 00:52:00,
2013-06-12 21:01:00,81.0,68.0,-100.00,South,189,4.0,5.0,65,0.00,,,0.00,,2013-06-13 01:01:00,
2013-06-12 21:12:00,81.0,68.0,-100.00,South,189,4.0,5.0,65,0.00,,,0.00,,2013-06-13 01:12:00,
2013-06-12 21:22:00,80.0,68.0,-100.00,South,185,2.0,2.0,68,0.00,,,0.00,,2013-06-13 01:22:00,
2013-06-12 21:33:00,80.0,68.0,-100.00,South,185,2.0,2.0,68,0.00,,,0.00,,2013-06-13 01:33:00,
2013-06-12 21:43:00,78.0,69.0,-100.00,West,264,0.0,1.0,76,0.00,,,0.00,,2013-06-13 01:43:00,
2013-06-12 21:53:00,78.0,69.0,-100.00,West,264,0.0,1.0,76,0.00,,,0.00,,2013-06-13 01:53:00,
2013-06-12 22:02:00,77.0,69.0,-100.00,SSW,192,0.0,1.0,76,0.00,,,0.00,,2013-06-13 02:02:00,
2013-06-12 22:12:00,77.0,69.0,-100.00,SSW,192,0.0,1.0,76,0.00,,,0.00,,2013-06-13 02:12:00,
2013-06-12 22:22:00,76.0,69.0,-100.00,NNW,343,1.0,2.0,80,0.00,,,0.00,,2013-06-13 02:22:00,
2013-06-12 22:33:00,76.0,69.0,-100.00,NNW,343,1.0,2.0,80,0.00,,,0.00,,2013-06-13 02:33:00,
2013-06-12 22:43:00,74.0,69.0,-100.00,WNW,282,1.0,2.0,83,0.00,,,0.00,,2013-06-13 02:43:00,
2013-06-12 22:52:00,74.0,69.0,-100.00,WNW,282,1.0,2.0,83,0.00,,,0.00,,2013-06-13 02:52:00,
2013-06-12 23:02:00,74.0,69.0,-100.00,West,278,0.0,1.0,83,0.00,,,0.00,,2013-06-13 03:02:00,
2013-06-12 23:12:00,74.0,69.0,-100.00,West,278,0.0,1.0,83,0.00,,,0.00,,2013-06-13 03:12:00,
2013-06-12 23:22:00,74.0,69.0,-100.00,West,278,0.0,1.0,83,0.00,,,0.00,,2013-06-13 03:22:00,
2013-06-12 23:30:00,73.0,68.0,-100.00,South,191,1.0,2.0,83,0.00,,,0.00,,2013-06-13 03:30:00,
2013-06-12 23:33:00,73.0,69.0,-100.00,West,261,0.0,1.0,88,0.00,,,0.00,,2013-06-13 03:33:00,
2013-06-12 23:43:00,72.0,68.0,-100.00,SSE,165,2.0,2.0,87,0.00,,,0.00,,2013-06-13 03:43:00,
2013-06-12 23:52:00,72.0,68.0,-100.00,SSE,165,2.0,2.0,87,0.00,,,0.00,,2013-06-13 03:52:00,